Trident Challenger — V7TY7 — position and weather

sailwx.info

Track history (hours):
 
Tides and Currents Weather Stations Pressure Air Temp Water Temp Dewpoint Dewpoint Depression Visibility Wind Speed Wind Dir Waves Ship Positions

Trident Challenger

Last reported at 2014-Dec-13 05:07 UTC. Time now 2014-Dec-19 01:32 UTC.
Position N 55°29' W 006°35'.

Length 189 m; draft 12.2 m.

Type: Cargo ship. MMSI: 538003908.

Date/timePositionNaut miles runAvg speedWind from/ knotsBaromVisibWave heightAir tempDewpointWater temp
2014-Dec-13 05:07N 55°29' W 006°35'51 9.3
2014-Dec-12 23:33N 54°54' W 005°29'9 9.2
2014-Dec-12 22:33N 54°46' W 005°21'9 9.2
2014-Dec-12 21:33N 54°38' W 005°14'1010.0
2014-Dec-12 20:33N 54°28' W 005°15'1110.9
2014-Dec-12 19:32N 54°17' W 005°15'1110.8
2014-Dec-12 18:32N 54°06' W 005°14'1 0.2
2014-Dec-12 13:29N 54°06' W 005°13'2 0.8
2014-Dec-12 10:32N 54°04' W 005°16'9210.2
2014-Dec-12 01:33N 52°35' W 005°46'1212.5
2014-Dec-12 00:33N 52°23' W 005°52'1212.5
2014-Dec-11 23:33N 52°11' W 005°58'1211.9
2014-Dec-11 22:33N 52°02' W 006°12'1212.3
2014-Dec-11 21:33N 51°55' W 006°28'1210.8
2014-Dec-11 20:29N 51°51' W 006°45'1010.9
2014-Dec-11 19:33N 51°52' W 007°02'7 6.4
2014-Dec-11 18:28N 51°53' W 007°13'0 0.1
2014-Dec-11 17:31N 51°53' W 007°13'0 0.0
2014-Dec-11 16:31N 51°53' W 007°13'0 0.0
2014-Dec-11 15:28N 51°53' W 007°13'0 0.0
2014-Dec-11 14:31N 51°53' W 007°13'0 0.0
2014-Dec-11 13:28N 51°53' W 007°13'0 0.0
2014-Dec-11 12:31N 51°53' W 007°13'0 0.0
2014-Dec-11 11:31N 51°53' W 007°13'0 0.0
2014-Dec-11 10:31N 51°53' W 007°13'0 0.0
2014-Dec-11 09:31N 51°52' W 007°13'0 0.0
2014-Dec-11 08:31N 51°53' W 007°13'0 0.0
2014-Dec-11 07:28N 51°53' W 007°13'0 0.0
2014-Dec-11 06:31N 51°53' W 007°13'0 0.0
2014-Dec-11 05:31N 51°52' W 007°13'0 0.1
2014-Dec-11 04:31N 51°53' W 007°13'0 0.0
2014-Dec-11 03:31N 51°53' W 007°13'0 0.0
2014-Dec-11 02:31N 51°53' W 007°13'0 0.0
2014-Dec-11 01:31N 51°52' W 007°13'0 0.0
2014-Dec-11 00:31N 51°53' W 007°13'0 0.0
2014-Dec-10 23:31N 51°53' W 007°13'0 0.0
2014-Dec-10 22:31N 51°52' W 007°13'0 0.0
2014-Dec-10 21:28N 51°53' W 007°13'0 0.0
2014-Dec-10 20:28N 51°53' W 007°13'0 0.0
2014-Dec-10 19:31N 51°53' W 007°13'0 0.0
2014-Dec-10 18:28N 51°53' W 007°13'0 0.0
2014-Dec-10 17:31N 51°52' W 007°13'0 0.0
2014-Dec-10 16:31N 51°53' W 007°13'0 0.0
2014-Dec-10 15:28N 51°52' W 007°13'0 0.0
2014-Dec-10 14:31N 51°52' W 007°13'0 0.0
2014-Dec-10 13:31N 51°53' W 007°13'0 0.0
2014-Dec-10 12:31N 51°53' W 007°13'0 0.0
2014-Dec-10 11:31N 51°52' W 007°13'0 0.0
2014-Dec-10 10:31N 51°53' W 007°13'0 0.0
2014-Dec-10 09:31N 51°53' W 007°13'0 0.0
2014-Dec-10 08:31N 51°53' W 007°13'0 0.0
2014-Dec-10 07:31N 51°53' W 007°13'0 0.0
2014-Dec-10 06:28N 51°53' W 007°13'0 0.0
2014-Dec-10 05:28N 51°53' W 007°13'0 0.0
2014-Dec-10 04:31N 51°53' W 007°13'0 0.0
2014-Dec-10 03:28N 51°52' W 007°13'0 0.0
2014-Dec-10 02:31N 51°53' W 007°13'0 0.0
2014-Dec-10 01:31N 51°53' W 007°13'0 0.0
2014-Dec-10 00:31N 51°53' W 007°13'0 0.0
2014-Dec-09 23:31N 51°53' W 007°13'0 0.0
2014-Dec-09 22:31N 51°53' W 007°13'0 0.0
2014-Dec-09 21:31N 51°53' W 007°13'0 0.0
2014-Dec-09 20:31N 51°52' W 007°13'0 0.0
2014-Dec-09 19:31N 51°53' W 007°13'0 0.0
2014-Dec-09 18:31N 51°53' W 007°13'0 0.0
2014-Dec-09 17:31N 51°53' W 007°13'0 0.0
2014-Dec-09 16:31N 51°53' W 007°13'0 0.0
2014-Dec-09 15:31N 51°53' W 007°13'0 0.0
2014-Dec-09 14:31N 51°53' W 007°13'0 0.0
2014-Dec-09 13:31N 51°53' W 007°13'0 0.0
2014-Dec-09 12:31N 51°53' W 007°13'0 0.0
2014-Dec-09 11:31N 51°53' W 007°13'0 0.0
2014-Dec-09 10:31N 51°53' W 007°13'0 0.0
2014-Dec-09 09:31N 51°53' W 007°13'0 0.0
2014-Dec-09 08:31N 51°53' W 007°13'0 0.0
2014-Dec-09 07:31N 51°53' W 007°13'0 0.0
2014-Dec-09 06:31N 51°53' W 007°13'0 0.0
2014-Dec-09 05:31N 51°53' W 007°13'0 0.0
2014-Dec-09 04:28N 51°53' W 007°13'0 0.0
2014-Dec-09 03:31N 51°52' W 007°13'0 0.0
2014-Dec-09 02:28N 51°52' W 007°13'0 0.0
2014-Dec-09 01:31N 51°52' W 007°13'0 0.0
2014-Dec-09 00:31N 51°52' W 007°13'0 0.0
2014-Dec-08 23:31N 51°52' W 007°13'0 0.0
2014-Dec-08 22:28N 51°52' W 007°13'0 0.0
2014-Dec-08 21:28N 51°52' W 007°13'0 0.0
2014-Dec-08 20:28N 51°52' W 007°13'0 0.0
2014-Dec-08 19:31N 51°52' W 007°13'0 0.0
2014-Dec-08 18:31N 51°52' W 007°13'0 0.0
2014-Dec-08 17:31N 51°52' W 007°13'0 0.0
2014-Dec-08 16:31N 51°52' W 007°13'0 0.0
2014-Dec-08 15:31N 51°52' W 007°13'0 0.0
2014-Dec-08 14:28N 51°52' W 007°13'0 0.0
2014-Dec-08 13:31N 51°52' W 007°13'0 0.0
2014-Dec-08 12:31N 51°52' W 007°13'0 0.0
2014-Dec-08 11:31N 51°52' W 007°13'0 0.0
2014-Dec-08 10:31N 51°52' W 007°13'0 0.0
2014-Dec-08 09:31N 51°52' W 007°13'0 0.0
2014-Dec-08 08:31N 51°52' W 007°13'0 0.0
2014-Dec-08 07:28N 51°52' W 007°13'0 0.0
2014-Dec-08 06:31N 51°52' W 007°13'0 0.0
2014-Dec-08 05:28N 51°52' W 007°13'0 0.0
2014-Dec-08 04:28N 51°52' W 007°13'0 0.0
2014-Dec-08 03:31N 51°52' W 007°13'0 0.1
2014-Dec-08 02:33N 51°52' W 007°13'7 7.3
2014-Dec-08 01:33N 51°46' W 007°20'1111.2
2014-Dec-08 00:33N 51°38' W 007°31'1110.9
2014-Dec-07 23:33N 51°28' W 007°40'1110.5
2014-Dec-07 22:33N 51°18' W 007°45'1110.6
2014-Dec-07 21:33N 51°08' W 007°52'1110.6
2014-Dec-07 20:32N 50°59' W 007°60'  
Track history (hours):
 
Tides and Currents Weather Stations Pressure Air Temp Water Temp Dewpoint Dewpoint Depression Visibility Wind Speed Wind Dir Waves Ship Positions

Trident Challenger

Last reported at 2014-Dec-13 05:07 UTC. Time now 2014-Dec-19 01:32 UTC.
Position N 55°29' W 006°35'.

Length 189 m; draft 12.2 m.

Type: Cargo ship. MMSI: 538003908.

Date/timePositionNaut miles runAvg speedWind from/ knotsBaromVisibWave heightAir tempDewpointWater temp
2014-Dec-13 05:07N 55°29' W 006°35'51 9.3
2014-Dec-12 23:33N 54°54' W 005°29'9 9.2
2014-Dec-12 22:33N 54°46' W 005°21'9 9.2
2014-Dec-12 21:33N 54°38' W 005°14'1010.0
2014-Dec-12 20:33N 54°28' W 005°15'1110.9
2014-Dec-12 19:32N 54°17' W 005°15'1110.8
2014-Dec-12 18:32N 54°06' W 005°14'1 0.2
2014-Dec-12 13:29N 54°06' W 005°13'2 0.8
2014-Dec-12 10:32N 54°04' W 005°16'9210.2
2014-Dec-12 01:33N 52°35' W 005°46'1212.5
2014-Dec-12 00:33N 52°23' W 005°52'1212.5
2014-Dec-11 23:33N 52°11' W 005°58'1211.9
2014-Dec-11 22:33N 52°02' W 006°12'1212.3
2014-Dec-11 21:33N 51°55' W 006°28'1210.8
2014-Dec-11 20:29N 51°51' W 006°45'1010.9
2014-Dec-11 19:33N 51°52' W 007°02'7 6.4
2014-Dec-11 18:28N 51°53' W 007°13'0 0.1
2014-Dec-11 17:31N 51°53' W 007°13'0 0.0
2014-Dec-11 16:31N 51°53' W 007°13'0 0.0
2014-Dec-11 15:28N 51°53' W 007°13'0 0.0
2014-Dec-11 14:31N 51°53' W 007°13'0 0.0
2014-Dec-11 13:28N 51°53' W 007°13'0 0.0
2014-Dec-11 12:31N 51°53' W 007°13'0 0.0
2014-Dec-11 11:31N 51°53' W 007°13'0 0.0
2014-Dec-11 10:31N 51°53' W 007°13'0 0.0
2014-Dec-11 09:31N 51°52' W 007°13'0 0.0
2014-Dec-11 08:31N 51°53' W 007°13'0 0.0
2014-Dec-11 07:28N 51°53' W 007°13'0 0.0
2014-Dec-11 06:31N 51°53' W 007°13'0 0.0
2014-Dec-11 05:31N 51°52' W 007°13'0 0.1
2014-Dec-11 04:31N 51°53' W 007°13'0 0.0
2014-Dec-11 03:31N 51°53' W 007°13'0 0.0
2014-Dec-11 02:31N 51°53' W 007°13'0 0.0
2014-Dec-11 01:31N 51°52' W 007°13'0 0.0
2014-Dec-11 00:31N 51°53' W 007°13'0 0.0
2014-Dec-10 23:31N 51°53' W 007°13'0 0.0
2014-Dec-10 22:31N 51°52' W 007°13'0 0.0
2014-Dec-10 21:28N 51°53' W 007°13'0 0.0
2014-Dec-10 20:28N 51°53' W 007°13'0 0.0
2014-Dec-10 19:31N 51°53' W 007°13'0 0.0
2014-Dec-10 18:28N 51°53' W 007°13'0 0.0
2014-Dec-10 17:31N 51°52' W 007°13'0 0.0
2014-Dec-10 16:31N 51°53' W 007°13'0 0.0
2014-Dec-10 15:28N 51°52' W 007°13'0 0.0
2014-Dec-10 14:31N 51°52' W 007°13'0 0.0
2014-Dec-10 13:31N 51°53' W 007°13'0 0.0
2014-Dec-10 12:31N 51°53' W 007°13'0 0.0
2014-Dec-10 11:31N 51°52' W 007°13'0 0.0
2014-Dec-10 10:31N 51°53' W 007°13'0 0.0
2014-Dec-10 09:31N 51°53' W 007°13'0 0.0
2014-Dec-10 08:31N 51°53' W 007°13'0 0.0
2014-Dec-10 07:31N 51°53' W 007°13'0 0.0
2014-Dec-10 06:28N 51°53' W 007°13'0 0.0
2014-Dec-10 05:28N 51°53' W 007°13'0 0.0
2014-Dec-10 04:31N 51°53' W 007°13'0 0.0
2014-Dec-10 03:28N 51°52' W 007°13'0 0.0
2014-Dec-10 02:31N 51°53' W 007°13'0 0.0
2014-Dec-10 01:31N 51°53' W 007°13'0 0.0
2014-Dec-10 00:31N 51°53' W 007°13'0 0.0
2014-Dec-09 23:31N 51°53' W 007°13'0 0.0
2014-Dec-09 22:31N 51°53' W 007°13'0 0.0
2014-Dec-09 21:31N 51°53' W 007°13'0 0.0
2014-Dec-09 20:31N 51°52' W 007°13'0 0.0
2014-Dec-09 19:31N 51°53' W 007°13'0 0.0
2014-Dec-09 18:31N 51°53' W 007°13'0 0.0
2014-Dec-09 17:31N 51°53' W 007°13'0 0.0
2014-Dec-09 16:31N 51°53' W 007°13'0 0.0
2014-Dec-09 15:31N 51°53' W 007°13'0 0.0
2014-Dec-09 14:31N 51°53' W 007°13'0 0.0
2014-Dec-09 13:31N 51°53' W 007°13'0 0.0
2014-Dec-09 12:31N 51°53' W 007°13'0 0.0
2014-Dec-09 11:31N 51°53' W 007°13'0 0.0
2014-Dec-09 10:31N 51°53' W 007°13'0 0.0
2014-Dec-09 09:31N 51°53' W 007°13'0 0.0
2014-Dec-09 08:31N 51°53' W 007°13'0 0.0
2014-Dec-09 07:31N 51°53' W 007°13'0 0.0
2014-Dec-09 06:31N 51°53' W 007°13'0 0.0
2014-Dec-09 05:31N 51°53' W 007°13'0 0.0
2014-Dec-09 04:28N 51°53' W 007°13'0 0.0
2014-Dec-09 03:31N 51°52' W 007°13'0 0.0
2014-Dec-09 02:28N 51°52' W 007°13'0 0.0
2014-Dec-09 01:31N 51°52' W 007°13'0 0.0
2014-Dec-09 00:31N 51°52' W 007°13'0 0.0
2014-Dec-08 23:31N 51°52' W 007°13'0 0.0
2014-Dec-08 22:28N 51°52' W 007°13'0 0.0
2014-Dec-08 21:28N 51°52' W 007°13'0 0.0
2014-Dec-08 20:28N 51°52' W 007°13'0 0.0
2014-Dec-08 19:31N 51°52' W 007°13'0 0.0
2014-Dec-08 18:31N 51°52' W 007°13'0 0.0
2014-Dec-08 17:31N 51°52' W 007°13'0 0.0
2014-Dec-08 16:31N 51°52' W 007°13'0 0.0
2014-Dec-08 15:31N 51°52' W 007°13'0 0.0
2014-Dec-08 14:28N 51°52' W 007°13'0 0.0
2014-Dec-08 13:31N 51°52' W 007°13'0 0.0
2014-Dec-08 12:31N 51°52' W 007°13'0 0.0
2014-Dec-08 11:31N 51°52' W 007°13'0 0.0
2014-Dec-08 10:31N 51°52' W 007°13'0 0.0
2014-Dec-08 09:31N 51°52' W 007°13'0 0.0
2014-Dec-08 08:31N 51°52' W 007°13'0 0.0
2014-Dec-08 07:28N 51°52' W 007°13'0 0.0
2014-Dec-08 06:31N 51°52' W 007°13'0 0.0
2014-Dec-08 05:28N 51°52' W 007°13'0 0.0
2014-Dec-08 04:28N 51°52' W 007°13'0 0.0
2014-Dec-08 03:31N 51°52' W 007°13'0 0.1
2014-Dec-08 02:33N 51°52' W 007°13'7 7.3
2014-Dec-08 01:33N 51°46' W 007°20'1111.2
2014-Dec-08 00:33N 51°38' W 007°31'1110.9
2014-Dec-07 23:33N 51°28' W 007°40'1110.5
2014-Dec-07 22:33N 51°18' W 007°45'1110.6
2014-Dec-07 21:33N 51°08' W 007°52'1110.6
2014-Dec-07 20:32N 50°59' W 007°60'  

Dump ship's entire track history